sensor_id;sensor_type;location;lat;lon;timestamp;P1;durP1;ratioP1;P2;durP2;ratioP2
25982;SDS011;13773;48.868;10.730;2022-07-29T00:00:14;3.80;;;3.23;;
25982;SDS011;13773;48.868;10.730;2022-07-29T00:02:40;5.87;;;3.80;;
25982;SDS011;13773;48.868;10.730;2022-07-29T00:05:07;4.13;;;3.70;;
25982;SDS011;13773;48.868;10.730;2022-07-29T00:07:34;6.23;;;3.47;;
25982;SDS011;13773;48.868;10.730;2022-07-29T00:10:00;4.17;;;3.60;;
25982;SDS011;13773;48.868;10.730;2022-07-29T00:12:26;4.87;;;3.57;;
25982;SDS011;13773;48.868;10.730;2022-07-29T00:14:52;4.63;;;4.10;;
25982;SDS011;13773;48.868;10.730;2022-07-29T00:17:19;5.83;;;4.30;;
25982;SDS011;13773;48.868;10.730;2022-07-29T00:19:45;4.43;;;3.80;;
25982;SDS011;13773;48.868;10.730;2022-07-29T00:22:10;6.67;;;3.93;;
25982;SDS011;13773;48.868;10.730;2022-07-29T00:24:36;4.50;;;4.10;;
25982;SDS011;13773;48.868;10.730;2022-07-29T00:27:02;4.73;;;3.73;;
25982;SDS011;13773;48.868;10.730;2022-07-29T00:29:28;5.63;;;4.33;;
25982;SDS011;13773;48.868;10.730;2022-07-29T00:31:53;6.27;;;4.07;;
25982;SDS011;13773;48.868;10.730;2022-07-29T00:34:19;4.63;;;4.23;;
25982;SDS011;13773;48.868;10.730;2022-07-29T00:37:03;6.63;;;4.60;;
25982;SDS011;13773;48.868;10.730;2022-07-29T00:39:29;4.33;;;3.93;;
25982;SDS011;13773;48.868;10.730;2022-07-29T00:41:54;7.17;;;4.80;;
25982;SDS011;13773;48.868;10.730;2022-07-29T00:44:20;4.27;;;3.83;;
25982;SDS011;13773;48.868;10.730;2022-07-29T00:46:46;5.37;;;4.10;;
25982;SDS011;13773;48.868;10.730;2022-07-29T00:49:12;5.00;;;4.50;;
25982;SDS011;13773;48.868;10.730;2022-07-29T00:51:38;6.47;;;3.70;;
25982;SDS011;13773;48.868;10.730;2022-07-29T00:54:04;4.10;;;3.70;;
25982;SDS011;13773;48.868;10.730;2022-07-29T00:56:31;4.50;;;3.60;;
25982;SDS011;13773;48.868;10.730;2022-07-29T00:58:58;6.93;;;4.00;;
25982;SDS011;13773;48.868;10.730;2022-07-29T01:01:24;4.00;;;3.70;;
25982;SDS011;13773;48.868;10.730;2022-07-29T01:03:50;4.50;;;3.63;;
25982;SDS011;13773;48.868;10.730;2022-07-29T01:06:16;3.97;;;3.60;;
25982;SDS011;13773;48.868;10.730;2022-07-29T01:08:43;5.67;;;3.97;;
25982;SDS011;13773;48.868;10.730;2022-07-29T01:11:12;5.50;;;4.20;;
25982;SDS011;13773;48.868;10.730;2022-07-29T01:13:38;4.60;;;4.20;;
25982;SDS011;13773;48.868;10.730;2022-07-29T01:16:25;5.17;;;4.27;;
25982;SDS011;13773;48.868;10.730;2022-07-29T01:18:56;4.67;;;3.87;;
25982;SDS011;13773;48.868;10.730;2022-07-29T01:29:56;5.13;;;3.90;;
25982;SDS011;13773;48.868;10.730;2022-07-29T01:32:26;4.30;;;3.40;;
25982;SDS011;13773;48.868;10.730;2022-07-29T01:43:10;4.10;;;3.70;;
25982;SDS011;13773;48.868;10.730;2022-07-29T01:45:58;4.37;;;3.57;;
25982;SDS011;13773;48.868;10.730;2022-07-29T01:51:10;4.57;;;3.67;;
25982;SDS011;13773;48.868;10.730;2022-07-29T01:53:44;4.90;;;4.30;;
25982;SDS011;13773;48.868;10.730;2022-07-29T01:56:24;4.10;;;3.80;;
25982;SDS011;13773;48.868;10.730;2022-07-29T01:58:54;4.07;;;3.67;;
25982;SDS011;13773;48.868;10.730;2022-07-29T02:01:22;4.57;;;4.17;;
25982;SDS011;13773;48.868;10.730;2022-07-29T02:03:50;4.57;;;4.17;;
25982;SDS011;13773;48.868;10.730;2022-07-29T02:06:19;5.60;;;4.37;;
25982;SDS011;13773;48.868;10.730;2022-07-29T02:08:48;5.80;;;4.30;;
25982;SDS011;13773;48.868;10.730;2022-07-29T02:11:16;6.43;;;4.20;;
25982;SDS011;13773;48.868;10.730;2022-07-29T02:13:42;5.03;;;4.07;;
25982;SDS011;13773;48.868;10.730;2022-07-29T02:16:09;6.60;;;4.50;;
25982;SDS011;13773;48.868;10.730;2022-07-29T02:18:39;4.43;;;4.03;;
25982;SDS011;13773;48.868;10.730;2022-07-29T02:21:08;4.83;;;3.90;;
25982;SDS011;13773;48.868;10.730;2022-07-29T02:23:35;4.73;;;4.33;;
25982;SDS011;13773;48.868;10.730;2022-07-29T02:26:02;5.03;;;4.57;;
25982;SDS011;13773;48.868;10.730;2022-07-29T02:28:29;4.60;;;4.00;;
25982;SDS011;13773;48.868;10.730;2022-07-29T02:30:56;4.43;;;4.03;;
25982;SDS011;13773;48.868;10.730;2022-07-29T02:33:26;5.47;;;3.83;;
25982;SDS011;13773;48.868;10.730;2022-07-29T02:35:53;4.20;;;3.90;;
25982;SDS011;13773;48.868;10.730;2022-07-29T02:38:20;4.80;;;4.20;;
25982;SDS011;13773;48.868;10.730;2022-07-29T02:41:08;3.70;;;3.40;;
25982;SDS011;13773;48.868;10.730;2022-07-29T02:43:36;4.03;;;3.63;;
25982;SDS011;13773;48.868;10.730;2022-07-29T02:46:05;4.07;;;3.77;;
25982;SDS011;13773;48.868;10.730;2022-07-29T02:48:41;4.40;;;3.77;;
25982;SDS011;13773;48.868;10.730;2022-07-29T02:51:17;4.20;;;3.80;;
25982;SDS011;13773;48.868;10.730;2022-07-29T02:53:48;4.40;;;4.00;;
25982;SDS011;13773;48.868;10.730;2022-07-29T02:56:18;5.30;;;3.63;;
25982;SDS011;13773;48.868;10.730;2022-07-29T02:58:53;4.13;;;3.73;;
25982;SDS011;13773;48.868;10.730;2022-07-29T03:01:22;4.13;;;3.83;;
25982;SDS011;13773;48.868;10.730;2022-07-29T03:03:50;3.67;;;3.33;;
25982;SDS011;13773;48.868;10.730;2022-07-29T03:06:19;4.00;;;3.53;;
25982;SDS011;13773;48.868;10.730;2022-07-29T03:08:47;5.13;;;4.00;;
25982;SDS011;13773;48.868;10.730;2022-07-29T03:11:14;4.13;;;3.70;;
25982;SDS011;13773;48.868;10.730;2022-07-29T03:13:41;3.87;;;3.43;;
25982;SDS011;13773;48.868;10.730;2022-07-29T03:16:07;4.43;;;4.03;;
25982;SDS011;13773;48.868;10.730;2022-07-29T03:18:34;5.17;;;3.87;;
25982;SDS011;13773;48.868;10.730;2022-07-29T03:21:01;4.33;;;3.60;;
25982;SDS011;13773;48.868;10.730;2022-07-29T03:23:28;4.10;;;3.67;;
25982;SDS011;13773;48.868;10.730;2022-07-29T03:25:54;3.73;;;3.43;;
25982;SDS011;13773;48.868;10.730;2022-07-29T03:28:20;3.83;;;3.30;;
25982;SDS011;13773;48.868;10.730;2022-07-29T03:30:46;3.60;;;3.30;;
25982;SDS011;13773;48.868;10.730;2022-07-29T03:33:12;5.63;;;3.60;;
25982;SDS011;13773;48.868;10.730;2022-07-29T03:35:37;3.67;;;3.37;;
25982;SDS011;13773;48.868;10.730;2022-07-29T03:38:03;3.67;;;3.37;;
25982;SDS011;13773;48.868;10.730;2022-07-29T03:40:37;3.80;;;3.50;;
25982;SDS011;13773;48.868;10.730;2022-07-29T03:43:07;6.33;;;3.53;;
25982;SDS011;13773;48.868;10.730;2022-07-29T03:45:36;3.77;;;3.43;;
25982;SDS011;13773;48.868;10.730;2022-07-29T03:48:05;4.90;;;3.90;;
25982;SDS011;13773;48.868;10.730;2022-07-29T03:50:35;3.80;;;3.50;;
25982;SDS011;13773;48.868;10.730;2022-07-29T03:53:01;4.27;;;3.87;;
25982;SDS011;13773;48.868;10.730;2022-07-29T03:55:28;4.03;;;3.43;;
25982;SDS011;13773;48.868;10.730;2022-07-29T03:57:58;3.80;;;3.50;;
25982;SDS011;13773;48.868;10.730;2022-07-29T04:00:25;4.67;;;3.67;;
25982;SDS011;13773;48.868;10.730;2022-07-29T04:02:52;5.47;;;4.30;;
25982;SDS011;13773;48.868;10.730;2022-07-29T04:05:18;4.40;;;4.00;;
25982;SDS011;13773;48.868;10.730;2022-07-29T04:07:44;4.37;;;3.83;;
25982;SDS011;13773;48.868;10.730;2022-07-29T04:10:10;4.03;;;3.40;;
25982;SDS011;13773;48.868;10.730;2022-07-29T04:12:36;4.40;;;3.90;;
25982;SDS011;13773;48.868;10.730;2022-07-29T04:15:05;3.50;;;3.20;;
25982;SDS011;13773;48.868;10.730;2022-07-29T04:17:31;4.00;;;3.60;;
25982;SDS011;13773;48.868;10.730;2022-07-29T04:19:57;4.03;;;3.63;;
25982;SDS011;13773;48.868;10.730;2022-07-29T04:22:22;5.50;;;3.77;;
25982;SDS011;13773;48.868;10.730;2022-07-29T04:24:48;4.27;;;3.87;;
25982;SDS011;13773;48.868;10.730;2022-07-29T04:27:14;4.10;;;3.67;;
25982;SDS011;13773;48.868;10.730;2022-07-29T04:29:39;4.07;;;3.67;;
25982;SDS011;13773;48.868;10.730;2022-07-29T04:32:05;4.60;;;4.10;;
25982;SDS011;13773;48.868;10.730;2022-07-29T04:34:31;5.67;;;3.83;;
25982;SDS011;13773;48.868;10.730;2022-07-29T04:36:57;4.40;;;4.00;;
25982;SDS011;13773;48.868;10.730;2022-07-29T04:39:22;4.53;;;3.77;;
25982;SDS011;13773;48.868;10.730;2022-07-29T04:41:49;4.30;;;3.90;;
25982;SDS011;13773;48.868;10.730;2022-07-29T04:44:15;4.33;;;3.93;;
25982;SDS011;13773;48.868;10.730;2022-07-29T04:46:41;3.80;;;3.40;;
25982;SDS011;13773;48.868;10.730;2022-07-29T04:49:06;4.00;;;3.60;;
25982;SDS011;13773;48.868;10.730;2022-07-29T04:51:32;3.80;;;3.50;;
25982;SDS011;13773;48.868;10.730;2022-07-29T04:53:58;3.73;;;3.43;;
25982;SDS011;13773;48.868;10.730;2022-07-29T04:56:24;4.07;;;3.73;;
25982;SDS011;13773;48.868;10.730;2022-07-29T04:58:50;4.97;;;3.50;;
25982;SDS011;13773;48.868;10.730;2022-07-29T05:01:16;3.87;;;3.40;;
25982;SDS011;13773;48.868;10.730;2022-07-29T05:03:42;4.67;;;3.73;;
25982;SDS011;13773;48.868;10.730;2022-07-29T05:06:07;3.50;;;3.20;;
25982;SDS011;13773;48.868;10.730;2022-07-29T05:08:33;4.17;;;3.40;;
25982;SDS011;13773;48.868;10.730;2022-07-29T05:10:59;4.30;;;3.90;;
25982;SDS011;13773;48.868;10.730;2022-07-29T05:13:24;5.10;;;3.50;;
25982;SDS011;13773;48.868;10.730;2022-07-29T05:15:50;4.10;;;3.70;;
25982;SDS011;13773;48.868;10.730;2022-07-29T05:18:16;4.77;;;3.50;;
25982;SDS011;13773;48.868;10.730;2022-07-29T05:20:42;3.87;;;3.20;;
25982;SDS011;13773;48.868;10.730;2022-07-29T05:23:07;3.63;;;3.30;;
25982;SDS011;13773;48.868;10.730;2022-07-29T05:25:33;3.97;;;3.23;;
25982;SDS011;13773;48.868;10.730;2022-07-29T05:27:59;4.50;;;3.33;;
25982;SDS011;13773;48.868;10.730;2022-07-29T05:30:25;3.57;;;3.10;;
25982;SDS011;13773;48.868;10.730;2022-07-29T05:32:51;2.97;;;2.77;;
25982;SDS011;13773;48.868;10.730;2022-07-29T05:35:16;3.43;;;3.13;;
25982;SDS011;13773;48.868;10.730;2022-07-29T05:37:42;4.60;;;3.13;;
25982;SDS011;13773;48.868;10.730;2022-07-29T05:40:08;3.10;;;2.80;;
25982;SDS011;13773;48.868;10.730;2022-07-29T05:42:34;4.23;;;3.17;;
25982;SDS011;13773;48.868;10.730;2022-07-29T05:45:01;3.47;;;3.00;;
25982;SDS011;13773;48.868;10.730;2022-07-29T05:47:27;2.97;;;2.77;;
25982;SDS011;13773;48.868;10.730;2022-07-29T05:49:52;3.57;;;3.27;;
25982;SDS011;13773;48.868;10.730;2022-07-29T05:52:18;3.63;;;3.13;;
25982;SDS011;13773;48.868;10.730;2022-07-29T05:54:44;3.10;;;2.80;;
25982;SDS011;13773;48.868;10.730;2022-07-29T05:57:20;4.20;;;3.17;;
25982;SDS011;13773;48.868;10.730;2022-07-29T05:59:47;3.47;;;3.17;;
25982;SDS011;13773;48.868;10.730;2022-07-29T06:02:14;3.40;;;3.10;;
25982;SDS011;13773;48.868;10.730;2022-07-29T06:04:40;3.08;;;2.78;;
25982;SDS011;13773;48.868;10.730;2022-07-29T06:07:06;3.08;;;2.88;;
25982;SDS011;13773;48.868;10.730;2022-07-29T06:09:32;3.63;;;2.78;;
25982;SDS011;13773;48.868;10.730;2022-07-29T06:11:58;3.20;;;2.45;;
25982;SDS011;13773;48.868;10.730;2022-07-29T06:14:24;3.17;;;2.88;;
25982;SDS011;13773;48.868;10.730;2022-07-29T06:16:51;4.05;;;2.83;;
25982;SDS011;13773;48.868;10.730;2022-07-29T06:19:18;2.75;;;2.55;;
25982;SDS011;13773;48.868;10.730;2022-07-29T06:21:44;3.13;;;2.83;;
25982;SDS011;13773;48.868;10.730;2022-07-29T06:24:11;2.53;;;2.33;;
25982;SDS011;13773;48.868;10.730;2022-07-29T06:26:39;3.35;;;2.88;;
25982;SDS011;13773;48.868;10.730;2022-07-29T06:29:05;3.45;;;3.15;;
25982;SDS011;13773;48.868;10.730;2022-07-29T06:31:32;3.15;;;2.95;;
25982;SDS011;13773;48.868;10.730;2022-07-29T06:33:57;3.47;;;3.00;;
25982;SDS011;13773;48.868;10.730;2022-07-29T06:36:23;3.00;;;2.80;;
25982;SDS011;13773;48.868;10.730;2022-07-29T06:38:49;3.15;;;2.85;;
25982;SDS011;13773;48.868;10.730;2022-07-29T06:41:15;3.47;;;2.80;;
25982;SDS011;13773;48.868;10.730;2022-07-29T06:43:41;4.13;;;2.75;;
25982;SDS011;13773;48.868;10.730;2022-07-29T06:46:09;2.60;;;2.40;;
25982;SDS011;13773;48.868;10.730;2022-07-29T06:48:37;2.93;;;2.70;;
25982;SDS011;13773;48.868;10.730;2022-07-29T06:51:03;2.97;;;2.73;;
25982;SDS011;13773;48.868;10.730;2022-07-29T06:53:30;2.78;;;2.58;;
25982;SDS011;13773;48.868;10.730;2022-07-29T06:55:57;2.73;;;2.30;;
25982;SDS011;13773;48.868;10.730;2022-07-29T06:58:25;3.27;;;2.60;;
25982;SDS011;13773;48.868;10.730;2022-07-29T07:00:51;2.70;;;2.50;;
25982;SDS011;13773;48.868;10.730;2022-07-29T07:03:18;2.90;;;2.70;;
25982;SDS011;13773;48.868;10.730;2022-07-29T07:05:44;2.80;;;2.40;;
25982;SDS011;13773;48.868;10.730;2022-07-29T07:08:11;3.05;;;2.70;;
25982;SDS011;13773;48.868;10.730;2022-07-29T07:10:37;4.70;;;2.65;;
25982;SDS011;13773;48.868;10.730;2022-07-29T07:13:04;5.45;;;3.33;;
25982;SDS011;13773;48.868;10.730;2022-07-29T07:15:30;9.23;;;3.47;;
25982;SDS011;13773;48.868;10.730;2022-07-29T07:17:56;22.45;;;4.45;;
25982;SDS011;13773;48.868;10.730;2022-07-29T07:20:22;9.70;;;3.17;;
25982;SDS011;13773;48.868;10.730;2022-07-29T07:22:48;10.57;;;3.05;;
25982;SDS011;13773;48.868;10.730;2022-07-29T07:25:14;10.45;;;2.80;;
25982;SDS011;13773;48.868;10.730;2022-07-29T07:27:40;10.95;;;2.97;;
25982;SDS011;13773;48.868;10.730;2022-07-29T07:30:06;6.30;;;2.58;;
25982;SDS011;13773;48.868;10.730;2022-07-29T07:32:33;2.13;;;2.00;;
25982;SDS011;13773;48.868;10.730;2022-07-29T07:34:59;5.30;;;2.78;;
25982;SDS011;13773;48.868;10.730;2022-07-29T07:37:26;5.20;;;2.70;;
25982;SDS011;13773;48.868;10.730;2022-07-29T07:39:56;3.33;;;2.97;;
25982;SDS011;13773;48.868;10.730;2022-07-29T07:42:24;6.38;;;2.80;;
25982;SDS011;13773;48.868;10.730;2022-07-29T07:44:54;9.65;;;3.05;;
25982;SDS011;13773;48.868;10.730;2022-07-29T07:47:22;2.72;;;2.47;;
25982;SDS011;13773;48.868;10.730;2022-07-29T07:49:50;2.70;;;2.50;;
25982;SDS011;13773;48.868;10.730;2022-07-29T07:52:16;2.63;;;2.42;;
25982;SDS011;13773;48.868;10.730;2022-07-29T07:54:44;2.40;;;2.20;;
25982;SDS011;13773;48.868;10.730;2022-07-29T07:57:10;2.75;;;2.25;;
25982;SDS011;13773;48.868;10.730;2022-07-29T07:59:36;4.10;;;2.83;;
25982;SDS011;13773;48.868;10.730;2022-07-29T08:02:02;2.60;;;2.40;;
25982;SDS011;13773;48.868;10.730;2022-07-29T08:04:28;2.85;;;2.65;;
25982;SDS011;13773;48.868;10.730;2022-07-29T08:06:54;2.88;;;2.67;;
25982;SDS011;13773;48.868;10.730;2022-07-29T08:09:21;3.10;;;2.80;;
25982;SDS011;13773;48.868;10.730;2022-07-29T08:11:47;3.67;;;2.50;;
25982;SDS011;13773;48.868;10.730;2022-07-29T08:14:13;2.63;;;2.42;;
25982;SDS011;13773;48.868;10.730;2022-07-29T08:16:39;2.72;;;2.53;;
25982;SDS011;13773;48.868;10.730;2022-07-29T08:19:06;2.58;;;2.20;;
25982;SDS011;13773;48.868;10.730;2022-07-29T08:21:31;6.68;;;2.30;;
25982;SDS011;13773;48.868;10.730;2022-07-29T08:23:57;3.15;;;2.35;;
25982;SDS011;13773;48.868;10.730;2022-07-29T08:26:42;13.32;;;3.60;;
25982;SDS011;13773;48.868;10.730;2022-07-29T08:29:08;16.42;;;4.05;;
25982;SDS011;13773;48.868;10.730;2022-07-29T08:31:35;11.77;;;3.95;;
25982;SDS011;13773;48.868;10.730;2022-07-29T08:34:02;15.07;;;3.65;;
25982;SDS011;13773;48.868;10.730;2022-07-29T08:36:29;7.28;;;2.90;;
25982;SDS011;13773;48.868;10.730;2022-07-29T08:38:55;5.30;;;2.40;;
25982;SDS011;13773;48.868;10.730;2022-07-29T08:41:21;3.53;;;2.30;;
25982;SDS011;13773;48.868;10.730;2022-07-29T08:43:48;8.30;;;2.78;;
25982;SDS011;13773;48.868;10.730;2022-07-29T08:46:14;5.30;;;2.47;;
25982;SDS011;13773;48.868;10.730;2022-07-29T08:48:41;5.30;;;2.63;;
25982;SDS011;13773;48.868;10.730;2022-07-29T08:51:07;3.30;;;2.78;;
25982;SDS011;13773;48.868;10.730;2022-07-29T08:53:37;2.65;;;2.45;;
25982;SDS011;13773;48.868;10.730;2022-07-29T08:56:07;2.75;;;2.20;;
25982;SDS011;13773;48.868;10.730;2022-07-29T08:58:36;3.35;;;2.80;;
25982;SDS011;13773;48.868;10.730;2022-07-29T09:01:02;6.20;;;2.88;;
25982;SDS011;13773;48.868;10.730;2022-07-29T09:03:31;2.72;;;2.53;;
25982;SDS011;13773;48.868;10.730;2022-07-29T09:05:59;4.80;;;2.75;;
25982;SDS011;13773;48.868;10.730;2022-07-29T09:08:26;2.38;;;2.20;;
25982;SDS011;13773;48.868;10.730;2022-07-29T09:10:53;7.43;;;2.67;;
25982;SDS011;13773;48.868;10.730;2022-07-29T09:13:21;8.35;;;2.65;;
25982;SDS011;13773;48.868;10.730;2022-07-29T09:15:47;3.13;;;1.92;;
25982;SDS011;13773;48.868;10.730;2022-07-29T09:18:35;1.90;;;1.73;;
25982;SDS011;13773;48.868;10.730;2022-07-29T09:21:00;2.20;;;2.00;;
25982;SDS011;13773;48.868;10.730;2022-07-29T09:26:29;2.45;;;2.17;;
25982;SDS011;13773;48.868;10.730;2022-07-29T09:28:56;2.58;;;2.03;;
25982;SDS011;13773;48.868;10.730;2022-07-29T09:31:33;2.47;;;1.92;;
25982;SDS011;13773;48.868;10.730;2022-07-29T09:34:00;2.30;;;2.10;;
25982;SDS011;13773;48.868;10.730;2022-07-29T09:36:26;2.22;;;2.03;;
25982;SDS011;13773;48.868;10.730;2022-07-29T09:39:01;2.70;;;2.00;;
25982;SDS011;13773;48.868;10.730;2022-07-29T09:41:27;2.58;;;2.00;;
25982;SDS011;13773;48.868;10.730;2022-07-29T09:43:55;4.93;;;2.33;;
25982;SDS011;13773;48.868;10.730;2022-07-29T09:46:24;1.80;;;1.70;;
25982;SDS011;13773;48.868;10.730;2022-07-29T09:49:09;1.90;;;1.80;;
25982;SDS011;13773;48.868;10.730;2022-07-29T09:51:37;9.13;;;2.97;;
25982;SDS011;13773;48.868;10.730;2022-07-29T09:54:46;12.30;;;2.38;;
25982;SDS011;13773;48.868;10.730;2022-07-29T09:56:53;5.53;;;2.20;;
25982;SDS011;13773;48.868;10.730;2022-07-29T09:59:20;12.10;;;2.85;;
25982;SDS011;13773;48.868;10.730;2022-07-29T10:01:49;19.10;;;4.00;;
25982;SDS011;13773;48.868;10.730;2022-07-29T10:04:15;10.43;;;2.60;;
25982;SDS011;13773;48.868;10.730;2022-07-29T10:07:00;5.47;;;2.42;;
25982;SDS011;13773;48.868;10.730;2022-07-29T10:09:28;7.28;;;2.20;;
25982;SDS011;13773;48.868;10.730;2022-07-29T10:12:05;2.28;;;2.08;;
25982;SDS011;13773;48.868;10.730;2022-07-29T10:14:36;2.42;;;1.85;;
25982;SDS011;13773;48.868;10.730;2022-07-29T10:17:04;2.10;;;1.90;;
25982;SDS011;13773;48.868;10.730;2022-07-29T10:19:31;4.10;;;1.83;;
25982;SDS011;13773;48.868;10.730;2022-07-29T10:21:57;2.28;;;1.90;;
25982;SDS011;13773;48.868;10.730;2022-07-29T10:24:25;4.10;;;1.75;;
25982;SDS011;13773;48.868;10.730;2022-07-29T10:26:55;3.63;;;1.70;;
25982;SDS011;13773;48.868;10.730;2022-07-29T10:29:22;2.17;;;1.95;;
25982;SDS011;13773;48.868;10.730;2022-07-29T10:37:19;3.72;;;2.05;;
25982;SDS011;13773;48.868;10.730;2022-07-29T10:40:02;3.67;;;1.98;;
25982;SDS011;13773;48.868;10.730;2022-07-29T10:42:52;3.47;;;2.13;;
25982;SDS011;13773;48.868;10.730;2022-07-29T10:45:19;2.88;;;2.08;;
25982;SDS011;13773;48.868;10.730;2022-07-29T10:47:45;2.60;;;2.05;;
25982;SDS011;13773;48.868;10.730;2022-07-29T10:50:10;2.30;;;2.10;;
25982;SDS011;13773;48.868;10.730;2022-07-29T10:52:55;2.33;;;1.95;;
25982;SDS011;13773;48.868;10.730;2022-07-29T10:55:41;2.50;;;2.30;;
25982;SDS011;13773;48.868;10.730;2022-07-29T10:58:13;2.58;;;2.38;;
25982;SDS011;13773;48.868;10.730;2022-07-29T11:00:43;2.78;;;2.30;;
25982;SDS011;13773;48.868;10.730;2022-07-29T11:03:29;3.70;;;2.55;;
25982;SDS011;13773;48.868;10.730;2022-07-29T11:06:08;4.63;;;2.40;;
25982;SDS011;13773;48.868;10.730;2022-07-29T11:08:34;2.42;;;2.22;;
25982;SDS011;13773;48.868;10.730;2022-07-29T11:16:15;3.45;;;2.60;;
25982;SDS011;13773;48.868;10.730;2022-07-29T11:21:36;3.10;;;2.40;;
25982;SDS011;13773;48.868;10.730;2022-07-29T11:24:16;3.22;;;2.97;;
25982;SDS011;13773;48.868;10.730;2022-07-29T11:26:45;2.97;;;2.78;;
25982;SDS011;13773;48.868;10.730;2022-07-29T11:29:34;2.80;;;2.55;;
25982;SDS011;13773;48.868;10.730;2022-07-29T11:32:08;3.60;;;3.20;;
25982;SDS011;13773;48.868;10.730;2022-07-29T11:34:35;3.20;;;3.00;;
25982;SDS011;13773;48.868;10.730;2022-07-29T11:39:38;3.60;;;2.67;;
25982;SDS011;13773;48.868;10.730;2022-07-29T11:47:39;3.83;;;3.50;;
25982;SDS011;13773;48.868;10.730;2022-07-29T11:50:08;5.50;;;3.33;;
25982;SDS011;13773;48.868;10.730;2022-07-29T11:52:39;3.40;;;3.10;;
25982;SDS011;13773;48.868;10.730;2022-07-29T11:55:16;5.07;;;3.55;;
25982;SDS011;13773;48.868;10.730;2022-07-29T12:00:12;3.92;;;3.25;;
25982;SDS011;13773;48.868;10.730;2022-07-29T12:02:53;4.05;;;3.10;;
25982;SDS011;13773;48.868;10.730;2022-07-29T12:05:20;3.58;;;3.38;;
25982;SDS011;13773;48.868;10.730;2022-07-29T12:07:55;4.35;;;3.53;;
25982;SDS011;13773;48.868;10.730;2022-07-29T12:10:20;4.18;;;3.60;;
25982;SDS011;13773;48.868;10.730;2022-07-29T12:12:50;5.35;;;3.40;;
25982;SDS011;13773;48.868;10.730;2022-07-29T12:15:18;6.22;;;3.80;;
25982;SDS011;13773;48.868;10.730;2022-07-29T12:17:45;4.05;;;3.65;;
25982;SDS011;13773;48.868;10.730;2022-07-29T12:20:12;5.45;;;4.15;;
25982;SDS011;13773;48.868;10.730;2022-07-29T12:22:39;4.65;;;3.92;;
25982;SDS011;13773;48.868;10.730;2022-07-29T12:25:08;6.68;;;4.43;;
25982;SDS011;13773;48.868;10.730;2022-07-29T12:27:40;13.10;;;4.38;;
25982;SDS011;13773;48.868;10.730;2022-07-29T12:30:09;8.02;;;4.45;;
25982;SDS011;13773;48.868;10.730;2022-07-29T12:32:44;10.27;;;4.20;;
25982;SDS011;13773;48.868;10.730;2022-07-29T12:35:12;7.93;;;4.57;;
25982;SDS011;13773;48.868;10.730;2022-07-29T12:37:40;6.43;;;5.15;;
25982;SDS011;13773;48.868;10.730;2022-07-29T12:40:07;7.38;;;5.20;;
25982;SDS011;13773;48.868;10.730;2022-07-29T12:42:35;5.97;;;5.38;;
25982;SDS011;13773;48.868;10.730;2022-07-29T12:45:01;7.32;;;5.72;;
25982;SDS011;13773;48.868;10.730;2022-07-29T12:47:27;7.13;;;6.53;;
25982;SDS011;13773;48.868;10.730;2022-07-29T12:50:13;7.63;;;6.63;;
25982;SDS011;13773;48.868;10.730;2022-07-29T12:52:43;7.43;;;6.50;;
25982;SDS011;13773;48.868;10.730;2022-07-29T12:55:09;6.82;;;6.13;;
25982;SDS011;13773;48.868;10.730;2022-07-29T12:57:48;7.35;;;6.65;;
25982;SDS011;13773;48.868;10.730;2022-07-29T13:00:21;8.32;;;5.93;;
25982;SDS011;13773;48.868;10.730;2022-07-29T13:02:54;6.63;;;6.03;;
25982;SDS011;13773;48.868;10.730;2022-07-29T13:05:21;11.15;;;5.82;;
25982;SDS011;13773;48.868;10.730;2022-07-29T13:07:47;8.60;;;5.65;;
25982;SDS011;13773;48.868;10.730;2022-07-29T13:10:19;7.57;;;4.88;;
25982;SDS011;13773;48.868;10.730;2022-07-29T13:13:02;6.32;;;4.80;;
25982;SDS011;13773;48.868;10.730;2022-07-29T13:15:39;6.90;;;5.22;;
25982;SDS011;13773;48.868;10.730;2022-07-29T13:18:29;5.80;;;4.57;;
25982;SDS011;13773;48.868;10.730;2022-07-29T13:20:57;6.05;;;4.60;;
25982;SDS011;13773;48.868;10.730;2022-07-29T13:23:35;5.10;;;4.30;;
25982;SDS011;13773;48.868;10.730;2022-07-29T13:26:05;8.10;;;5.20;;
25982;SDS011;13773;48.868;10.730;2022-07-29T13:28:31;6.20;;;5.00;;
25982;SDS011;13773;48.868;10.730;2022-07-29T13:30:57;5.57;;;4.70;;
25982;SDS011;13773;48.868;10.730;2022-07-29T13:33:22;6.83;;;4.90;;
25982;SDS011;13773;48.868;10.730;2022-07-29T13:35:48;9.17;;;5.27;;
25982;SDS011;13773;48.868;10.730;2022-07-29T13:38:14;8.97;;;5.03;;
25982;SDS011;13773;48.868;10.730;2022-07-29T13:40:40;9.77;;;4.00;;
25982;SDS011;13773;48.868;10.730;2022-07-29T13:43:08;8.40;;;4.13;;
25982;SDS011;13773;48.868;10.730;2022-07-29T13:45:35;7.50;;;3.97;;
25982;SDS011;13773;48.868;10.730;2022-07-29T13:48:00;6.13;;;3.87;;
25982;SDS011;13773;48.868;10.730;2022-07-29T13:50:26;4.40;;;4.00;;
25982;SDS011;13773;48.868;10.730;2022-07-29T13:52:52;4.00;;;3.70;;
25982;SDS011;13773;48.868;10.730;2022-07-29T13:55:18;4.60;;;4.20;;
25982;SDS011;13773;48.868;10.730;2022-07-29T13:57:43;4.72;;;3.88;;
25982;SDS011;13773;48.868;10.730;2022-07-29T14:00:09;5.07;;;4.35;;
25982;SDS011;13773;48.868;10.730;2022-07-29T14:02:35;4.00;;;3.60;;
25982;SDS011;13773;48.868;10.730;2022-07-29T14:05:03;4.18;;;3.70;;
25982;SDS011;13773;48.868;10.730;2022-07-29T14:07:30;4.22;;;3.83;;
25982;SDS011;13773;48.868;10.730;2022-07-29T14:09:55;5.97;;;3.72;;
25982;SDS011;13773;48.868;10.730;2022-07-29T14:12:22;4.68;;;3.30;;
25982;SDS011;13773;48.868;10.730;2022-07-29T14:14:47;7.20;;;3.78;;
25982;SDS011;13773;48.868;10.730;2022-07-29T14:17:13;12.68;;;4.03;;
25982;SDS011;13773;48.868;10.730;2022-07-29T14:19:40;8.13;;;4.13;;
25982;SDS011;13773;48.868;10.730;2022-07-29T14:22:06;6.93;;;4.25;;
25982;SDS011;13773;48.868;10.730;2022-07-29T14:24:33;7.97;;;4.07;;
25982;SDS011;13773;48.868;10.730;2022-07-29T14:26:59;4.38;;;3.97;;
25982;SDS011;13773;48.868;10.730;2022-07-29T14:29:25;5.22;;;3.50;;
25982;SDS011;13773;48.868;10.730;2022-07-29T14:31:51;5.20;;;3.78;;
25982;SDS011;13773;48.868;10.730;2022-07-29T14:34:17;4.70;;;3.70;;
25982;SDS011;13773;48.868;10.730;2022-07-29T14:36:42;4.13;;;3.75;;
25982;SDS011;13773;48.868;10.730;2022-07-29T14:39:08;3.90;;;3.55;;
25982;SDS011;13773;48.868;10.730;2022-07-29T14:41:34;4.55;;;3.17;;
25982;SDS011;13773;48.868;10.730;2022-07-29T14:44:00;3.83;;;3.58;;
25982;SDS011;13773;48.868;10.730;2022-07-29T14:46:26;5.30;;;3.80;;
25982;SDS011;13773;48.868;10.730;2022-07-29T14:48:52;3.60;;;3.30;;
25982;SDS011;13773;48.868;10.730;2022-07-29T14:51:18;4.37;;;3.37;;
25982;SDS011;13773;48.868;10.730;2022-07-29T14:53:44;3.40;;;3.10;;
25982;SDS011;13773;48.868;10.730;2022-07-29T14:56:09;3.78;;;3.17;;
25982;SDS011;13773;48.868;10.730;2022-07-29T14:58:35;4.70;;;3.20;;
25982;SDS011;13773;48.868;10.730;2022-07-29T15:01:01;3.90;;;2.90;;
25982;SDS011;13773;48.868;10.730;2022-07-29T15:03:27;3.43;;;3.10;;
25982;SDS011;13773;48.868;10.730;2022-07-29T15:05:53;6.07;;;3.07;;
25982;SDS011;13773;48.868;10.730;2022-07-29T15:08:19;5.63;;;3.47;;
25982;SDS011;13773;48.868;10.730;2022-07-29T15:10:45;5.27;;;3.33;;
25982;SDS011;13773;48.868;10.730;2022-07-29T15:13:10;3.00;;;2.80;;
25982;SDS011;13773;48.868;10.730;2022-07-29T15:15:36;3.43;;;3.10;;
25982;SDS011;13773;48.868;10.730;2022-07-29T15:18:02;2.80;;;2.60;;
25982;SDS011;13773;48.868;10.730;2022-07-29T15:20:28;2.67;;;2.47;;
25982;SDS011;13773;48.868;10.730;2022-07-29T15:22:54;3.10;;;2.80;;
25982;SDS011;13773;48.868;10.730;2022-07-29T15:25:21;2.70;;;2.50;;